Aeroporto :
LOGIN :

Iscrizione | Disclaimer

   EN    FR    IT 

 










Sommario :    VFR   VFR Marginale   IFR   IFR Intensivo   IFR Molto Intensivo
Visibilità : 
Base nubi : 
>= 8 km
>= 3000ft
5 / 8 km
1000 / 3000 ft
1500m / 5 km
500 / 1000 ft
800 / 1500m
200 / 500 ft
< 800m
< 200 ft
Simboli :   Temporali  Nebbia  Neve Forte  Precipitazioni Forti  Vento > 20 kt
SIGMETs :   Varie  Temporali  Ghiacco  Turbolenza  Onda orograficha  Ceneri Vulcaniche






- Altitudine del aeroporto : 11 ft
- Codice IATA : SXL


EISG - Sligo

ULTIMO METAR :
  • 141330Z 02015G26KT CAVOK 07/02 Q1012

METARs OBSOLETI :
  • 141230Z 02019G31KT 7000 FEW021 SCT031 SCT040 06/02 Q1012
  • 141200Z 02012KT CAVOK 07/03 Q1011
  • 141130Z 02014KT CAVOK 07/03 Q1011
  • 141100Z 02012KT 9999 FEW044 06/02 Q1011

TAF TAF EISG
Valido dal 14 a 12 ore il 14 a 21 ore UTC


141100Z 1412/1421 01013KT 9999 SCT040
BECMG 1412/1414 01015G25KT
TEMPO 1412/1418 -SHRA SCT018CB
PROB30
TEMPO 1412/1418 4000 SHRA BKN018CB
BECMG 1416/1418 36009KT



MetMap, La meteo Aeronautica in un colpo d'occhio ! - Copyright ORBIFLY Dicembre 2007 - Disclaimer

ORBIFLY MET'MAP TEAM :

Programmazione e sviluppo : Alexandra Zaïnal
Concezione e sviluppo : Baudouin d'Aumeries
Co-Programmazione e sviluppo : Marc-Olivier Méhu
Supporto tecnico e logistico : Manuel Goepfert
Aiuto per la traduzione : Arnaldo La Scala

Contatto : metmap@orbifly.com




FONTI E CREDITI :

   NOAA